createdAt,value
2017-05-09T00:00:03.001Z,55.68
2017-05-09T00:01:03.019Z,55.2
2017-05-09T00:02:02.743Z,55.49
2017-05-09T00:03:03.077Z,54.82
2017-05-09T00:04:03.106Z,55.1
2017-05-09T00:05:03.130Z,54.82
2017-05-09T00:06:03.160Z,54.72
2017-05-09T00:07:03.189Z,55.3
2017-05-09T00:08:02.896Z,55.49
2017-05-09T00:09:03.246Z,54.91
2017-05-09T00:10:02.958Z,54.82
2017-05-09T00:11:02.984Z,55.2
2017-05-09T00:12:03.325Z,55.1
2017-05-09T00:13:03.348Z,55.68
2017-05-09T00:14:03.379Z,55.68
2017-05-09T00:15:03.127Z,55.59
2017-05-09T00:16:03.431Z,55.3
2017-05-09T00:17:03.456Z,55.3
2017-05-09T00:18:03.171Z,55.49
2017-05-09T00:19:03.509Z,55.1
2017-05-09T00:20:03.538Z,55.49
2017-05-09T00:21:03.256Z,55.68
2017-05-09T00:22:03.596Z,55.3
2017-05-09T00:23:03.308Z,55.4
2017-05-09T00:24:03.651Z,55.4
2017-05-09T00:25:03.674Z,55.49
2017-05-09T00:26:03.395Z,55.4
2017-05-09T00:27:03.415Z,55.3
2017-05-09T00:28:03.759Z,55.78
2017-05-09T00:29:03.779Z,55.4
2017-05-09T00:30:03.814Z,55.49
2017-05-09T00:31:03.841Z,55.49
2017-05-09T00:32:03.864Z,55.3
2017-05-09T00:33:03.892Z,55.49
2017-05-09T00:34:03.920Z,55.4
2017-05-09T00:35:03.631Z,55.3
2017-05-09T00:36:03.664Z,55.49
2017-05-09T00:37:04.004Z,55.4
2017-05-09T00:38:04.033Z,55.49
2017-05-09T00:39:04.053Z,55.59
2017-05-09T00:40:04.077Z,55.49
2017-05-09T00:41:04.106Z,55.3
2017-05-09T00:42:04.136Z,55.68
2017-05-09T00:43:04.160Z,55.3
2017-05-09T00:44:04.189Z,55.59
2017-05-09T00:45:03.903Z,55.3
2017-05-09T00:46:04.242Z,55.2
2017-05-09T00:47:04.268Z,55.56
2017-05-09T00:48:04.304Z,55.4
2017-05-09T00:49:04.008Z,55.3
2017-05-09T00:50:04.346Z,55.01
2017-05-09T00:51:04.375Z,55.2
2017-05-09T00:52:04.403Z,55.27
2017-05-09T00:53:04.428Z,55.49
2017-05-09T00:54:04.457Z,55.1
2017-05-09T00:55:04.478Z,55.2
2017-05-09T00:56:04.202Z,55.3
2017-05-09T00:57:04.231Z,55.3
2017-05-09T00:58:04.808Z,55.3
2017-05-09T00:59:04.590Z,54.91
2017-05-09T01:00:04.613Z,54.91
2017-05-09T01:01:04.335Z,54.72
2017-05-09T01:02:04.359Z,55.01
2017-05-09T01:03:04.944Z,55.1
2017-05-09T01:04:04.416Z,55.18
2017-05-09T01:05:04.754Z,55.08
2017-05-09T01:06:04.470Z,54.91
2017-05-09T01:07:04.811Z,55.08
2017-05-09T01:08:05.085Z,55.08
2017-05-09T01:09:04.548Z,55.27
2017-05-09T01:10:04.892Z,55.18
2017-05-09T01:11:04.914Z,54.88
2017-05-09T01:12:04.632Z,55.46
2017-05-09T01:13:05.221Z,54.88
2017-05-09T01:14:04.992Z,55.36
2017-05-09T01:15:04.709Z,55.18
2017-05-09T01:16:05.049Z,55.36
2017-05-09T01:17:04.766Z,55.46
2017-05-09T01:18:05.351Z,55.36
2017-05-09T01:19:05.129Z,55.18
2017-05-09T01:20:05.156Z,55.36
2017-05-09T01:21:05.182Z,55.18
2017-05-09T01:22:05.210Z,55.36
2017-05-09T01:23:05.491Z,54.79
2017-05-09T01:24:04.952Z,54.79
2017-05-09T01:25:05.290Z,54.88
2017-05-09T01:26:05.002Z,54.98
2017-05-09T01:27:05.347Z,54.98
2017-05-09T01:28:05.628Z,54.88
2017-05-09T01:29:05.408Z,54.98
2017-05-09T01:30:05.421Z,54.98
2017-05-09T01:31:05.138Z,54.98
2017-05-09T01:32:05.162Z,55.08
2017-05-09T01:33:05.758Z,55.08
2017-05-09T01:34:05.531Z,54.98
2017-05-09T01:35:05.556Z,54.79
2017-05-09T01:36:05.585Z,54.79
2017-05-09T01:37:05.299Z,54.6
2017-05-09T01:38:05.886Z,54.5
2017-05-09T01:39:05.671Z,54.88
2017-05-09T01:40:05.379Z,54.6
2017-05-09T01:41:05.726Z,54.69
2017-05-09T01:42:05.750Z,54.69
2017-05-09T01:43:06.028Z,54.98
2017-05-09T01:44:05.488Z,55.18
2017-05-09T01:45:05.521Z,54.98
2017-05-09T01:46:05.543Z,54.98
2017-05-09T01:47:05.882Z,54.4
2017-05-09T01:48:06.163Z,54.69
2017-05-09T01:49:05.939Z,54.4
2017-05-09T01:50:05.961Z,54.21
2017-05-09T01:51:05.986Z,54.21
2017-05-09T01:52:06.017Z,54.21
2017-05-09T01:53:06.042Z,54.21
2017-05-09T01:54:06.071Z,54.11
2017-05-09T01:55:06.099Z,54.4
2017-05-09T01:56:05.812Z,54.5
2017-05-09T01:57:06.156Z,54.5
2017-05-09T01:58:06.178Z,54.31
2017-05-09T01:59:06.208Z,54.4
2017-05-09T02:00:05.921Z,54.4
2017-05-09T02:01:06.257Z,54.4
2017-05-09T02:02:05.974Z,54.6
2017-05-09T02:03:06.315Z,54.31
2017-05-09T02:04:06.031Z,54.69
2017-05-09T02:05:06.364Z,54.31
2017-05-09T02:06:06.396Z,54.79
2017-05-09T02:07:06.417Z,53.92
2017-05-09T02:08:06.443Z,54.11
2017-05-09T02:09:06.160Z,54.21
2017-05-09T02:10:06.184Z,53.92
2017-05-09T02:11:06.525Z,54.31
2017-05-09T02:12:06.551Z,54.4
2017-05-09T02:13:06.577Z,54.4
2017-05-09T02:14:06.607Z,54.21
2017-05-09T02:15:06.631Z,54.31
2017-05-09T02:16:06.660Z,54.02
2017-05-09T02:17:06.684Z,54.21
2017-05-09T02:18:06.399Z,54.31
2017-05-09T02:19:06.739Z,54.21
2017-05-09T02:20:06.455Z,53.83
2017-05-09T02:21:06.792Z,54.21
2017-05-09T02:22:06.513Z,53.92
2017-05-09T02:23:06.846Z,53.92
2017-05-09T02:24:06.876Z,53.92
2017-05-09T02:25:06.900Z,53.89
2017-05-09T02:26:06.929Z,54.02
2017-05-09T02:27:06.954Z,54.02
2017-05-09T02:28:06.983Z,53.8
2017-05-09T02:29:07.003Z,53.8
2017-05-09T02:30:07.035Z,53.8
2017-05-09T02:31:06.749Z,53.73
2017-05-09T02:32:07.086Z,54.02
2017-05-09T02:33:07.115Z,53.89
2017-05-09T02:34:06.826Z,53.63
2017-05-09T02:35:07.166Z,53.63
2017-05-09T02:36:07.191Z,53.73
2017-05-09T02:37:07.225Z,53.44
2017-05-09T02:38:07.249Z,53.34
2017-05-09T02:39:07.272Z,53.53
2017-05-09T02:40:07.299Z,53.53
2017-05-09T02:41:07.328Z,53.51
2017-05-09T02:42:07.354Z,53.53
2017-05-09T02:43:07.380Z,53.63
2017-05-09T02:44:07.407Z,53.51
2017-05-09T02:45:07.123Z,53.53
2017-05-09T02:46:07.460Z,53.41
2017-05-09T02:47:07.488Z,53.41
2017-05-09T02:48:07.513Z,53.51
2017-05-09T02:49:07.542Z,53.61
2017-05-09T02:50:07.571Z,53.7
2017-05-09T02:51:07.597Z,53.22
2017-05-09T02:52:07.621Z,53.7
2017-05-09T02:53:07.645Z,53.8
2017-05-09T02:54:07.361Z,53.41
2017-05-09T02:55:07.698Z,53.41
2017-05-09T02:56:07.727Z,53.41
2017-05-09T02:57:07.446Z,53.22
2017-05-09T02:58:07.785Z,53.03
2017-05-09T02:59:08.061Z,53.03
2017-05-09T03:00:07.518Z,52.93
2017-05-09T03:01:07.552Z,53.03
2017-05-09T03:02:07.576Z,53.13
2017-05-09T03:03:07.918Z,53.03
2017-05-09T03:04:07.878Z,53.03
2017-05-09T03:05:07.971Z,52.93
2017-05-09T03:06:07.994Z,52.93
2017-05-09T03:07:08.020Z,52.83
2017-05-09T03:08:08.042Z,52.93
2017-05-09T03:09:08.327Z,53.03
2017-05-09T03:10:08.103Z,52.93
2017-05-09T03:11:08.123Z,52.93
2017-05-09T03:12:08.157Z,52.93
2017-05-09T03:13:08.182Z,53.03
2017-05-09T03:14:08.458Z,52.93
2017-05-09T03:15:08.233Z,53.03
2017-05-09T03:16:07.945Z,52.93
2017-05-09T03:17:08.288Z,52.73
2017-05-09T03:18:08.313Z,52.93
2017-05-09T03:19:08.590Z,52.93
2017-05-09T03:20:08.055Z,53.03
2017-05-09T03:21:08.391Z,53.03
2017-05-09T03:22:08.418Z,53.13
2017-05-09T03:23:08.449Z,53.13
2017-05-09T03:24:08.722Z,53.03
2017-05-09T03:25:08.503Z,53.22
2017-05-09T03:26:08.527Z,52.93
2017-05-09T03:27:08.240Z,53.03
2017-05-09T03:28:08.277Z,52.83
2017-05-09T03:29:08.553Z,53.22
2017-05-09T03:30:08.635Z,53.22
2017-05-09T03:31:08.347Z,53.22
2017-05-09T03:32:08.684Z,53.22
2017-05-09T03:33:08.713Z,53.31
2017-05-09T03:34:08.678Z,53.13
2017-05-09T03:35:08.766Z,53.13
2017-05-09T03:36:08.791Z,52.83
2017-05-09T03:37:08.508Z,53.03
2017-05-09T03:38:08.533Z,53.13
2017-05-09T03:39:09.124Z,53.22
2017-05-09T03:40:08.898Z,53.13
2017-05-09T03:41:08.607Z,53.13
2017-05-09T03:42:08.957Z,53.03
2017-05-09T03:43:08.660Z,53.13
2017-05-09T03:44:09.256Z,53.03
2017-05-09T03:45:09.030Z,53.03
2017-05-09T03:46:09.055Z,53.03
2017-05-09T03:47:09.084Z,52.83
2017-05-09T03:48:09.101Z,52.93
2017-05-09T03:49:09.133Z,53.13
2017-05-09T03:50:08.849Z,53.13
2017-05-09T03:51:09.186Z,53.13
2017-05-09T03:52:09.219Z,53.13
2017-05-09T03:53:09.236Z,53.22
2017-05-09T03:54:09.268Z,53.13
2017-05-09T03:55:09.301Z,53.13
2017-05-09T03:56:09.321Z,52.93
2017-05-09T03:57:09.032Z,53.13
2017-05-09T03:58:09.377Z,53.13
2017-05-09T03:59:09.089Z,53.22
2017-05-09T04:00:09.432Z,52.83
2017-05-09T04:01:09.146Z,53.31
2017-05-09T04:02:09.482Z,52.64
2017-05-09T04:03:09.196Z,52.64
2017-05-09T04:04:09.536Z,52.83
2017-05-09T04:05:09.561Z,52.83
2017-05-09T04:06:09.586Z,52.73
2017-05-09T04:07:09.611Z,52.83
2017-05-09T04:08:09.647Z,52.93
2017-05-09T04:09:09.659Z,52.73
2017-05-09T04:10:09.383Z,53.03
2017-05-09T04:11:09.406Z,52.55
2017-05-09T04:12:09.744Z,52.93
2017-05-09T04:13:09.767Z,52.93
2017-05-09T04:14:09.484Z,52.73
2017-05-09T04:15:09.824Z,52.55
2017-05-09T04:16:09.846Z,52.55
2017-05-09T04:17:09.563Z,52.52
2017-05-09T04:18:09.903Z,52.64
2017-05-09T04:19:09.929Z,52.61
2017-05-09T04:20:09.957Z,52.45
2017-05-09T04:21:09.987Z,52.55
2017-05-09T04:22:10.010Z,52.52
2017-05-09T04:23:10.034Z,52.64
2017-05-09T04:24:09.757Z,52.64
2017-05-09T04:25:10.028Z,52.55
2017-05-09T04:26:10.113Z,52.52
2017-05-09T04:27:10.142Z,52.45
2017-05-09T04:28:10.173Z,52.55
2017-05-09T04:29:10.197Z,52.45
2017-05-09T04:30:10.161Z,52.55
2017-05-09T04:31:10.249Z,52.64
2017-05-09T04:32:10.307Z,52.93
2017-05-09T04:33:10.300Z,52.73
2017-05-09T04:34:10.020Z,52.06
2017-05-09T04:35:10.612Z,52.45
2017-05-09T04:36:10.382Z,52.16
2017-05-09T04:37:10.407Z,51.97
2017-05-09T04:38:10.434Z,52.16
2017-05-09T04:39:10.460Z,52.16
2017-05-09T04:40:10.738Z,52.35
2017-05-09T04:41:10.198Z,52.25
2017-05-09T04:42:10.222Z,52.25
2017-05-09T04:43:10.247Z,52.16
2017-05-09T04:44:10.279Z,52.45
2017-05-09T04:45:10.873Z,52.55
2017-05-09T04:46:10.640Z,51.97
2017-05-09T04:47:10.670Z,51.48
2017-05-09T04:48:10.699Z,51.58
2017-05-09T04:49:10.716Z,51.68
2017-05-09T04:50:10.999Z,51.87
2017-05-09T04:51:10.777Z,51.77
2017-05-09T04:52:10.798Z,51.68
2017-05-09T04:53:10.826Z,51.61
2017-05-09T04:54:10.861Z,51.99
2017-05-09T04:55:11.136Z,51.39
2017-05-09T04:56:10.597Z,51.41
2017-05-09T04:57:10.931Z,51.51
2017-05-09T04:58:10.650Z,51.03
2017-05-09T04:59:10.675Z,51.12
2017-05-09T05:00:11.268Z,51.22
2017-05-09T05:01:11.041Z,51.32
2017-05-09T05:02:11.069Z,51.03
2017-05-09T05:03:11.096Z,51.22
2017-05-09T05:04:11.124Z,51.61
2017-05-09T05:05:11.149Z,51.41
2017-05-09T05:06:11.171Z,51.32
2017-05-09T05:07:11.202Z,51.51
2017-05-09T05:08:10.910Z,50.93
2017-05-09T05:09:10.944Z,50.93
2017-05-09T05:10:11.280Z,51.03
2017-05-09T05:11:11.310Z,51.15
2017-05-09T05:12:11.335Z,51.15
2017-05-09T05:13:11.363Z,51.05
2017-05-09T05:14:11.076Z,51.05
2017-05-09T05:15:11.420Z,50.93
2017-05-09T05:16:11.443Z,51.12
2017-05-09T05:17:11.155Z,50.38
2017-05-09T05:18:11.486Z,50.38
2017-05-09T05:19:11.519Z,50.54
2017-05-09T05:20:11.548Z,50.18
2017-05-09T05:21:11.572Z,50.28
2017-05-09T05:22:11.285Z,50.18
2017-05-09T05:23:11.622Z,50.18
2017-05-09T05:24:11.655Z,50.38
2017-05-09T05:25:11.681Z,50.28
2017-05-09T05:26:11.708Z,50.38
2017-05-09T05:27:11.418Z,50.57
2017-05-09T05:28:11.449Z,50.57
2017-05-09T05:29:11.478Z,50.47
2017-05-09T05:30:11.503Z,50.67
2017-05-09T05:31:11.841Z,50.67
2017-05-09T05:32:11.553Z,50.47
2017-05-09T05:33:11.933Z,50.38
2017-05-09T05:34:11.923Z,49.9
2017-05-09T05:35:11.948Z,50.28
2017-05-09T05:36:11.664Z,49.8
2017-05-09T05:37:11.690Z,49.99
2017-05-09T05:38:11.719Z,50.09
2017-05-09T05:39:11.740Z,50.09
2017-05-09T05:40:12.084Z,50.57
2017-05-09T05:41:12.109Z,50.38
2017-05-09T05:42:12.137Z,50.09
2017-05-09T05:43:12.162Z,50.28
2017-05-09T05:44:12.191Z,50.31
2017-05-09T05:45:11.925Z,49.8
2017-05-09T05:46:12.236Z,50.01
2017-05-09T05:47:12.277Z,50.28
2017-05-09T05:48:12.297Z,50.11
2017-05-09T05:49:12.325Z,50.21
2017-05-09T05:50:12.350Z,50.4
2017-05-09T05:51:12.379Z,50.21
2017-05-09T05:52:12.405Z,50.31
2017-05-09T05:53:12.441Z,49.82
2017-05-09T05:54:12.458Z,50.69
2017-05-09T05:55:12.487Z,50.69
2017-05-09T05:56:12.508Z,49.92
2017-05-09T05:57:12.537Z,49.82
2017-05-09T05:58:12.568Z,50.11
2017-05-09T05:59:12.599Z,50.11
2017-05-09T06:00:12.334Z,50.01
2017-05-09T06:01:12.644Z,49.73
2017-05-09T06:02:12.676Z,49.82
2017-05-09T06:03:12.702Z,49.73
2017-05-09T06:04:12.731Z,49.63
2017-05-09T06:05:12.762Z,49.55
2017-05-09T06:06:12.472Z,49.63
2017-05-09T06:07:12.817Z,49.63
2017-05-09T06:08:12.526Z,49.75
2017-05-09T06:09:12.865Z,49.46
2017-05-09T06:10:12.882Z,49.75
2017-05-09T06:11:13.173Z,49.55
2017-05-09T06:12:12.636Z,48.88
2017-05-09T06:13:12.981Z,49.07
2017-05-09T06:14:13.001Z,49.07
2017-05-09T06:15:12.715Z,49.27
2017-05-09T06:16:12.996Z,49.37
2017-05-09T06:17:13.081Z,49.27
2017-05-09T06:18:13.113Z,49.07
2017-05-09T06:19:13.133Z,49.27
2017-05-09T06:20:13.160Z,49.27
2017-05-09T06:21:13.130Z,49.46
2017-05-09T06:22:13.217Z,49.27
2017-05-09T06:23:13.254Z,49.27
2017-05-09T06:24:13.272Z,49.27
2017-05-09T06:25:13.298Z,49.07
2017-05-09T06:26:13.571Z,49.27
2017-05-09T06:27:13.355Z,48.88
2017-05-09T06:28:13.382Z,48.79
2017-05-09T06:29:13.410Z,49.17
2017-05-09T06:30:13.435Z,48.69
2017-05-09T06:31:13.715Z,48.79
2017-05-09T06:32:13.487Z,48.79
2017-05-09T06:33:13.244Z,49.17
2017-05-09T06:34:13.550Z,49.27
2017-05-09T06:35:13.574Z,49.17
2017-05-09T06:36:13.574Z,48.79
2017-05-09T06:37:13.627Z,48.97
2017-05-09T06:38:13.653Z,48.69
2017-05-09T06:39:13.679Z,48.88
2017-05-09T06:40:13.701Z,48.79
2017-05-09T06:41:13.989Z,48.69
2017-05-09T06:42:13.764Z,48.79
2017-05-09T06:43:13.788Z,48.79
2017-05-09T06:44:13.813Z,48.79
2017-05-09T06:45:13.845Z,48.69
2017-05-09T06:46:13.805Z,48.69
2017-05-09T06:47:13.900Z,48.79
2017-05-09T06:48:13.925Z,48.79
2017-05-09T06:49:13.953Z,48.69
2017-05-09T06:50:14.004Z,48.88
2017-05-09T06:51:14.260Z,48.79
2017-05-09T06:52:14.030Z,48.69
2017-05-09T06:53:14.063Z,48.69
2017-05-09T06:54:14.088Z,48.97
2017-05-09T06:55:14.122Z,48.97
2017-05-09T06:56:13.833Z,48.88
2017-05-09T06:57:14.173Z,48.49
2017-05-09T06:58:14.197Z,48.69
2017-05-09T06:59:14.225Z,48.79
2017-05-09T07:00:14.298Z,48.69
2017-05-09T07:01:14.273Z,48.69
2017-05-09T07:02:14.314Z,48.79
2017-05-09T07:03:14.339Z,48.59
2017-05-09T07:04:14.057Z,48.59
2017-05-09T07:05:14.386Z,48.39
2017-05-09T07:06:14.411Z,48.69
2017-05-09T07:07:14.447Z,48.49
2017-05-09T07:08:14.468Z,48.59
2017-05-09T07:09:14.188Z,48.39
2017-05-09T07:10:14.537Z,48.69
2017-05-09T07:11:14.550Z,48.69
2017-05-09T07:12:14.618Z,48.69
2017-05-09T07:13:14.607Z,48.79
2017-05-09T07:14:14.636Z,48.3
2017-05-09T07:15:14.664Z,48.01
2017-05-09T07:16:14.686Z,48.11
2017-05-09T07:17:14.715Z,48.3
2017-05-09T07:18:14.748Z,48.39
2017-05-09T07:19:14.773Z,48.01
2017-05-09T07:20:14.801Z,47.91
2017-05-09T07:21:14.826Z,47.72
2017-05-09T07:22:14.540Z,47.33
2017-05-09T07:23:14.879Z,47.33
2017-05-09T07:24:14.908Z,47.63
2017-05-09T07:25:14.937Z,47.72
2017-05-09T07:26:14.958Z,47.63
2017-05-09T07:27:14.993Z,47.53
2017-05-09T07:28:14.707Z,47.63
2017-05-09T07:29:15.047Z,47.72
2017-05-09T07:30:15.072Z,47.6
2017-05-09T07:31:15.097Z,47.33
2017-05-09T07:32:14.818Z,47.63
2017-05-09T07:33:15.159Z,47.33
2017-05-09T07:34:14.871Z,47.12
2017-05-09T07:35:15.211Z,47.31
2017-05-09T07:36:15.236Z,47.43
2017-05-09T07:37:15.301Z,47.24
2017-05-09T07:38:15.287Z,47.31
2017-05-09T07:39:15.007Z,47.41
2017-05-09T07:40:15.349Z,47.22
2017-05-09T07:41:15.386Z,47.22
2017-05-09T07:42:15.405Z,46.92
2017-05-09T07:43:15.431Z,46.73
2017-05-09T07:44:15.455Z,46.54
2017-05-09T07:45:15.484Z,46.47
2017-05-09T07:46:15.513Z,46.44
2017-05-09T07:47:15.230Z,46.54
2017-05-09T07:48:15.565Z,46.56
2017-05-09T07:49:15.631Z,46.47
2017-05-09T07:50:15.620Z,46.73
2017-05-09T07:51:15.647Z,46.34
2017-05-09T07:52:15.677Z,46.54
2017-05-09T07:53:15.702Z,46.73
2017-05-09T07:54:15.733Z,46.54
2017-05-09T07:55:15.762Z,46.54
2017-05-09T07:56:15.785Z,46.73
2017-05-09T07:57:16.065Z,46.54
2017-05-09T07:58:15.843Z,46.34
2017-05-09T07:59:15.872Z,46.44
2017-05-09T08:00:15.579Z,46.73
2017-05-09T08:01:15.920Z,46.73
2017-05-09T08:02:16.206Z,46.34
2017-05-09T08:03:15.981Z,46.25
2017-05-09T08:04:15.690Z,46.34
2017-05-09T08:05:16.043Z,46.15
2017-05-09T08:06:16.057Z,46.06
2017-05-09T08:07:16.337Z,46.06
2017-05-09T08:08:15.802Z,46.15
2017-05-09T08:09:16.143Z,46.15
2017-05-09T08:10:16.167Z,46.25
2017-05-09T08:11:16.196Z,45.86
2017-05-09T08:12:16.474Z,45.86
2017-05-09T08:13:16.247Z,45.86
2017-05-09T08:14:15.973Z,45.86
2017-05-09T08:15:15.991Z,46.17
2017-05-09T08:16:16.333Z,45.96
2017-05-09T08:17:16.609Z,45.86
2017-05-09T08:18:16.389Z,45.57
2017-05-09T08:19:16.422Z,45.67
2017-05-09T08:20:16.444Z,45.48
2017-05-09T08:21:16.467Z,45.57
2017-05-09T08:22:16.750Z,45.67
2017-05-09T08:23:16.529Z,46.06
2017-05-09T08:24:16.550Z,45.28
2017-05-09T08:25:16.580Z,45.38
2017-05-09T08:26:16.608Z,45.4
2017-05-09T08:27:16.881Z,45.57
2017-05-09T08:28:16.661Z,45.28
2017-05-09T08:29:16.685Z,45.38
2017-05-09T08:30:16.404Z,45.38
2017-05-09T08:31:16.742Z,45.18
2017-05-09T08:32:17.023Z,45.18
2017-05-09T08:33:16.797Z,44.7
2017-05-09T08:34:16.829Z,44.7
2017-05-09T08:35:16.859Z,44.9
2017-05-09T08:36:16.880Z,45.09
2017-05-09T08:37:16.847Z,44.32
2017-05-09T08:38:16.934Z,44.32
2017-05-09T08:39:16.961Z,44.32
2017-05-09T08:40:16.988Z,44.6
2017-05-09T08:41:17.014Z,44.32
2017-05-09T08:42:17.296Z,44.51
2017-05-09T08:43:17.074Z,44.32
2017-05-09T08:44:17.098Z,44.6
2017-05-09T08:45:16.815Z,44.22
2017-05-09T08:46:17.157Z,44.32
2017-05-09T08:47:16.873Z,44.42
2017-05-09T08:48:17.204Z,44.32
2017-05-09T08:49:17.237Z,44.03
2017-05-09T08:50:17.259Z,44.03
2017-05-09T08:51:17.284Z,43.93
2017-05-09T08:52:17.320Z,43.93
2017-05-09T08:53:17.345Z,44.03
2017-05-09T08:54:17.372Z,44.03
2017-05-09T08:55:17.406Z,43.64
2017-05-09T08:56:17.427Z,44.12
2017-05-09T08:57:17.455Z,43.64
2017-05-09T08:58:17.484Z,43.84
2017-05-09T08:59:17.509Z,43.74
2017-05-09T09:00:17.538Z,43.84
2017-05-09T09:01:17.566Z,43.84
2017-05-09T09:02:17.591Z,44.22
2017-05-09T09:03:17.304Z,43.84
2017-05-09T09:04:17.650Z,43.93
2017-05-09T09:05:17.677Z,44.22
2017-05-09T09:06:17.703Z,43.74
2017-05-09T09:07:17.727Z,43.84
2017-05-09T09:08:17.748Z,43.74
2017-05-09T09:09:17.785Z,43.74
2017-05-09T09:10:17.504Z,44.12
2017-05-09T09:11:17.838Z,44.12
2017-05-09T09:12:17.872Z,43.93
2017-05-09T09:13:17.900Z,43.35
2017-05-09T09:14:17.916Z,43.84
2017-05-09T09:15:17.954Z,43.84
2017-05-09T09:16:17.979Z,43.64
2017-05-09T09:17:18.002Z,43.84
2017-05-09T09:18:18.031Z,43.74
2017-05-09T09:19:18.060Z,43.64
2017-05-09T09:20:18.089Z,43.93
2017-05-09T09:21:18.114Z,43.93
2017-05-09T09:22:18.140Z,44.03
2017-05-09T09:23:18.168Z,44.12
2017-05-09T09:24:17.885Z,44.03
2017-05-09T09:25:18.225Z,44.22
2017-05-09T09:26:18.249Z,43.84
2017-05-09T09:27:18.279Z,43.64
2017-05-09T09:28:17.994Z,43.74
2017-05-09T09:29:18.020Z,43.26
2017-05-09T09:30:18.361Z,43.45
2017-05-09T09:31:18.385Z,43.06
2017-05-09T09:32:18.650Z,43.06
2017-05-09T09:33:18.434Z,43.26
2017-05-09T09:34:18.472Z,42.97
2017-05-09T09:35:18.497Z,42.97
2017-05-09T09:36:33.124Z,42.87
2017-05-09T09:37:33.390Z,43.54
2017-05-09T09:38:18.819Z,43.06
2017-05-09T09:39:18.855Z,43.54
2017-05-09T09:40:18.664Z,43.16
2017-05-09T09:41:18.918Z,42.87
2017-05-09T09:42:18.951Z,42.97
2017-05-09T09:43:19.210Z,43.28
2017-05-09T09:44:18.977Z,43.26
2017-05-09T09:45:18.996Z,43.08
2017-05-09T09:46:19.664Z,42.77
2017-05-09T09:47:19.054Z,42.68
2017-05-09T09:48:19.104Z,42.79
2017-05-09T09:49:19.104Z,43.06
2017-05-09T09:50:19.161Z,42.87
2017-05-09T09:51:20.376Z,43.06
2017-05-09T09:52:18.995Z,42.58
2017-05-09T09:53:34.047Z,43.16
2017-05-09T09:55:33.631Z,42.77
2017-05-09T09:56:19.316Z,43.26
2017-05-09T09:57:19.097Z,43.26
2017-05-09T09:58:19.330Z,43.26
2017-05-09T09:59:33.995Z,43.26
2017-05-09T10:00:19.638Z,43.26
2017-05-09T10:01:19.212Z,43.35
2017-05-09T10:02:19.245Z,43.35
2017-05-09T10:03:19.268Z,43.16
2017-05-09T10:04:19.295Z,42.97
2017-05-09T10:05:19.820Z,43.35
2017-05-09T10:07:19.372Z,42.77
2017-05-09T10:08:19.401Z,42.77
2017-05-09T10:09:19.436Z,42.58
2017-05-09T10:10:19.711Z,42.19
2017-05-09T10:11:19.487Z,42
2017-05-09T10:12:19.515Z,42.19
2017-05-09T10:13:19.234Z,42.48
2017-05-09T10:14:19.575Z,42.1
2017-05-09T10:15:19.851Z,42.29
2017-05-09T10:16:19.631Z,42.29
2017-05-09T10:17:19.657Z,42.39
2017-05-09T10:18:19.677Z,42.19
2017-05-09T10:19:19.398Z,42.29
2017-05-09T10:20:19.989Z,42.5
2017-05-09T10:21:19.456Z,42.31
2017-05-09T10:22:19.790Z,42.21
2017-05-09T10:23:19.816Z,42.41
2017-05-09T10:24:19.846Z,42.21
2017-05-09T10:25:20.381Z,42.5
2017-05-09T10:26:19.935Z,42.5
2017-05-09T10:28:19.953Z,42.5
2017-05-09T10:29:19.986Z,42.21
2017-05-09T10:30:20.495Z,42.31
2017-05-09T10:31:20.039Z,42.29
2017-05-09T10:32:20.071Z,42.19
2017-05-09T10:33:19.787Z,42.31
2017-05-09T10:34:20.125Z,42.31
2017-05-09T10:35:20.401Z,42.29
2017-05-09T10:36:20.181Z,42.58
2017-05-09T10:37:20.205Z,42.41
2017-05-09T10:38:19.925Z,42.12
2017-05-09T10:39:19.949Z,42.12
2017-05-09T10:40:20.546Z,41.83
2017-05-09T10:41:20.318Z,42.21
2017-05-09T10:42:20.030Z,42.21
2017-05-09T10:43:20.369Z,42.02
2017-05-09T10:44:20.405Z,42.21
2017-05-09T10:45:20.682Z,42.21
2017-05-09T10:46:20.146Z,42.31
2017-05-09T10:47:20.482Z,42.31
2017-05-09T10:48:20.508Z,42.41
2017-05-09T10:49:20.544Z,42.31
2017-05-09T10:50:20.816Z,42.31
2017-05-09T10:51:20.278Z,42.21
2017-05-09T10:52:20.310Z,42.7
2017-05-09T10:53:20.653Z,42.41
2017-05-09T10:54:20.364Z,42.31
2017-05-09T10:55:20.957Z,42.31
2017-05-09T10:56:20.735Z,42.31
2017-05-09T10:57:20.762Z,42.5
2017-05-09T10:58:20.471Z,42.5
2017-05-09T10:59:20.812Z,42.31
2017-05-09T11:00:21.097Z,42.5
2017-05-09T11:01:20.874Z,42.41
2017-05-09T11:02:20.590Z,42.41
2017-05-09T11:03:20.613Z,42.21
2017-05-09T11:04:20.956Z,42.21
2017-05-09T11:05:20.932Z,42.6
2017-05-09T11:06:21.006Z,42.21
2017-05-09T11:07:21.038Z,42.41
2017-05-09T11:08:20.750Z,42.6
2017-05-09T11:09:20.784Z,42.41
2017-05-09T11:10:21.377Z,42.31
2017-05-09T11:11:21.150Z,42.5
2017-05-09T11:12:21.173Z,42.04
2017-05-09T11:13:21.198Z,42.43
2017-05-09T11:14:21.234Z,42.33
2017-05-09T11:15:21.260Z,42.43
2017-05-09T11:16:21.305Z,42.33
2017-05-09T11:17:21.319Z,42.43
2017-05-09T11:18:21.031Z,41.85
2017-05-09T11:19:21.372Z,42.14
2017-05-09T11:20:21.401Z,41.85
2017-05-09T11:21:21.432Z,41.94
2017-05-09T11:22:21.458Z,42.33
2017-05-09T11:23:21.487Z,42.33
2017-05-09T11:24:21.514Z,42.33
2017-05-09T11:25:21.536Z,42.24
2017-05-09T11:26:21.569Z,42.14
2017-05-09T11:27:21.598Z,41.46
2017-05-09T11:28:21.618Z,41.36
2017-05-09T11:29:21.656Z,41.46
2017-05-09T11:30:21.684Z,41.39
2017-05-09T11:31:21.397Z,41.77
2017-05-09T11:32:21.737Z,41.39
2017-05-09T11:33:21.771Z,41.19
2017-05-09T11:34:21.795Z,40.71
2017-05-09T11:35:21.824Z,40.92
2017-05-09T11:36:21.849Z,40.15
2017-05-09T11:37:21.878Z,39.86
2017-05-09T11:38:21.910Z,39.86
2017-05-09T11:39:21.935Z,40.15
2017-05-09T11:40:21.965Z,38.89
2017-05-09T11:41:21.992Z,38.81
2017-05-09T11:42:22.021Z,39.01
2017-05-09T11:43:22.041Z,38.45
2017-05-09T11:44:21.767Z,38.25
2017-05-09T11:45:21.823Z,37.67
2017-05-09T11:46:22.142Z,37.48
2017-05-09T11:47:22.165Z,37.69
2017-05-09T11:48:21.885Z,37.49
2017-05-09T11:49:22.227Z,37.01
2017-05-09T11:50:21.942Z,36.43
2017-05-09T11:51:21.975Z,36.24
2017-05-09T11:52:22.316Z,36.06
2017-05-09T11:53:22.344Z,35.96
2017-05-09T11:54:22.371Z,35.86
2017-05-09T11:55:22.091Z,36.16
2017-05-09T11:56:22.118Z,35.96
2017-05-09T11:57:22.465Z,35.4
2017-05-09T11:58:22.494Z,35.4
2017-05-09T11:59:22.521Z,35.11
2017-05-09T12:00:22.550Z,35.03
2017-05-09T12:01:22.584Z,34.93
2017-05-09T12:02:22.616Z,35.61
2017-05-09T12:03:22.645Z,35.33
2017-05-09T12:04:22.671Z,35.33
2017-05-09T12:05:22.697Z,34.95
2017-05-09T12:06:22.747Z,34.46
2017-05-09T12:07:22.770Z,34.19
2017-05-09T12:08:22.802Z,34.48
2017-05-09T12:09:22.831Z,34.58
2017-05-09T12:10:22.546Z,34.09
2017-05-09T12:11:22.892Z,33.61
2017-05-09T12:12:22.923Z,33.41
2017-05-09T12:13:22.945Z,33.31
2017-05-09T12:14:22.983Z,33.22
2017-05-09T12:15:23.023Z,32.32
2017-05-09T12:16:23.044Z,32.42
2017-05-09T12:17:23.067Z,32.62
2017-05-09T12:18:23.097Z,32.32
2017-05-09T12:19:23.133Z,32.89
2017-05-09T12:20:23.168Z,32.99
2017-05-09T12:21:22.882Z,33.67
2017-05-09T12:22:23.232Z,33.65
2017-05-09T12:23:23.256Z,33.75
2017-05-09T12:24:23.285Z,34.43
2017-05-09T12:25:23.314Z,34.43
2017-05-09T12:26:23.347Z,34.22
2017-05-09T12:27:23.367Z,34.22
2017-05-09T12:28:23.404Z,34.41
2017-05-09T12:29:23.440Z,34.51
2017-05-09T12:30:23.462Z,34.22
2017-05-09T12:31:23.182Z,34.61
2017-05-09T12:32:23.211Z,34.02
2017-05-09T12:33:23.559Z,34.51
2017-05-09T12:34:23.583Z,34.51
2017-05-09T12:35:23.613Z,33.92
2017-05-09T12:36:23.641Z,32.97
2017-05-09T12:37:23.361Z,33.36
2017-05-09T12:38:23.704Z,33.38
2017-05-09T12:39:23.733Z,33.28
2017-05-09T12:40:23.764Z,32.42
2017-05-09T12:41:23.798Z,32.32
2017-05-09T12:42:23.514Z,32.44
2017-05-09T12:43:23.859Z,32.05
2017-05-09T12:44:23.890Z,31.48
2017-05-09T12:45:23.923Z,31.38
2017-05-09T12:46:23.952Z,31.29
2017-05-09T12:47:23.673Z,30.72
2017-05-09T12:48:24.020Z,30.54
2017-05-09T12:49:23.736Z,30.15
2017-05-09T12:50:24.081Z,30.15
2017-05-09T12:51:23.801Z,30.05
2017-05-09T12:52:24.135Z,30.05
2017-05-09T12:53:24.167Z,30.05
2017-05-09T12:54:23.896Z,30.74
2017-05-09T12:55:24.227Z,30.83
2017-05-09T12:56:24.268Z,30.64
2017-05-09T12:57:24.298Z,31.01
2017-05-09T12:58:24.330Z,31.5